METAR v bližini

 

LJLJ - Ljubljana/Brnik, Slovenia
Oddaljenost od postaje: W 41km
Podatki zajeti: 16/04/2021 09:00
Rahlo oblačno
Rahlo oblačno
 Veter iz smeri E
Veter: E 6 km/h
Temperatura: 5°C
Rosišče: -2°C
Vlažnost: 61%
Tlak: 1021 hPa
Oblačnost: Rahlo oblačno
Vidljivost: 10 km
Podrobnosti o oblakih: Rahlo oblačno 1829 m
2021/04/16 07:00 LJLJ 160700Z 08003KT 040V120 9999 FEW060 05/M02 Q1021 NOSIG
LJMB - Maribor, Slovenia
Oddaljenost od postaje: NE 63km
Podatki zajeti: 16/04/2021 09:00
Jasno
Jasno
 Veter iz smeri SE
Veter: SE 2 km/h
Temperatura: 4°C
Rosišče: -2°C
Vlažnost: 65%
Tlak: 1022 hPa
Stanje: Jasno
Vidljivost: večja od 10 km
2021/04/16 07:00 LJMB 160700Z 13001KT CAVOK 04/M02 Q1022
 
LJPZ - Portoroz, Slovenia
Oddaljenost od postaje: SW 130km
Podatki zajeti: 16/04/2021 09:00
Jasno
Jasno
 Veter iz smeri calm
Veter: Calm
Temperatura: 9°C
Rosišče: 1°C
Vlažnost: 58%
Tlak: 1021 hPa
Stanje: Jasno
Vidljivost: večja od 10 km
2021/04/16 07:00 LJPZ 160700Z 00000KT CAVOK 09/01 Q1021
LJCE - Cerklje, Slovenia
Oddaljenost od postaje: ESE 49km
Podatki zajeti: 16/04/2021 09:00
Jasno
Jasno
 Veter iz smeri spremenljiv
Veter: spremenljiv 4 km/h
Temperatura: 4°C
Rosišče: 0°C
Vlažnost: 75%
Tlak: 1022 hPa
Stanje: Jasno
Vidljivost: večja od 10 km
2021/04/16 07:00 LJCE 160700Z VRB02KT CAVOK 04/M00 Q1022 RMK BLU
 
LDZA - Zagreb/Pleso, Croatia
Oddaljenost od postaje: ESE 96km
Podatki zajeti: 16/04/2021 09:00
Jasno
Jasno
 Veter iz smeri calm
Veter: Calm
Temperatura: 6°C
Rosišče: 0°C
Vlažnost: 66%
Tlak: 1022 hPa
Stanje: Jasno
Vidljivost: večja od 10 km
2021/04/16 07:00 LDZA 160700Z 00000KT CAVOK 06/00 Q1022 NOSIG
LDRI - Rijeka/Omisalj, Croatia
Oddaljenost od postaje: SSW 109km
Podatki zajeti: 16/04/2021 09:00
Jasno
Jasno
 Veter iz smeri ESE
Veter: ESE 6 km/h
Temperatura: 10°C
Rosišče: -6°C
Vlažnost: 32%
Tlak: 1021 hPa
Stanje: Jasno
Vidljivost: večja od 10 km
2021/04/16 07:00 LDRI 160700Z 12003KT 060V190 CAVOK 10/M06 Q1021
 
LDPL - Pula, Croatia
Oddaljenost od postaje: SSW 164km
Podatki zajeti: 16/04/2021 09:00
Jasno
Jasno
 Veter iz smeri E
Veter: E 19 km/h
Temperatura: 10°C
Občutek mraza zaradi vetra: 7°C
Rosišče: -2°C
Vlažnost: 43%
Tlak: 1020 hPa
Stanje: Jasno
Vidljivost: večja od 10 km
2021/04/16 07:00 LDPL 160700Z 08010KT CAVOK 10/M02 Q1020 NOSIG
LOWK - Klagenfurt(Civ/M, Austria
Oddaljenost od postaje: NW 76km
Podatki zajeti: 16/04/2021 08:50
Rahlo oblačno
Rahlo oblačno
 Veter iz smeri spremenljiv
Veter: spremenljiv 2 km/h
Temperatura: 3°C
Rosišče: -6°C
Vlažnost: 52%
Tlak: 1021 hPa
Oblačnost: Rahlo oblačno
Vidljivost: 10 km
Podrobnosti o oblakih: Rahlo oblačno 1829 m
2021/04/16 06:50 LOWK 160650Z VRB01KT 9999 FEW060 03/M06 Q1021 NOSIG
 
LOWG - Graz (mil/Civ), Austria
Oddaljenost od postaje: NNE 100km
Podatki zajeti: 16/04/2021 08:50
Rahlo oblačno
Rahlo oblačno
 Veter iz smeri spremenljiv
Veter: spremenljiv 2 km/h
Temperatura: 3°C
Rosišče: -3°C
Vlažnost: 65%
Tlak: 1021 hPa
Oblačnost: Rahlo oblačno
Vidljivost: 10 km
Podrobnosti o oblakih: Rahlo oblačno 1829 m
2021/04/16 06:50 LOWG 160650Z VRB01KT 9999 FEW060 03/M03 Q1021 NOSIG
LOAN - Wr.neustadt East, Austria
Oddaljenost od postaje: NNE 212km
Podatki zajeti: 16/04/2021 09:00
Pretežno oblačno
Pretežno oblačno
 Veter iz smeri NW
Veter: NW 9 km/h
Oblačnost: Pretežno oblačno
Podrobnosti o oblakih: Rahlo oblačno 1219 m
Delno oblačno 1524 m
Pretežno oblačno 2438 m
2021/04/16 07:00 LOAN 160700Z 32005KT 35KM FEW040CU SCT050SC BKN080AC
 
LIPQ - Ronchi Legionari, Italy
Oddaljenost od postaje: SW 35km
Podatki zajeti: 16/04/2021 08:50
Jasno
Jasno
 Veter iz smeri spremenljiv
Veter: spremenljiv 2 km/h
Temperatura: 8°C
Rosišče: -1°C
Vlažnost: 53%
Tlak: 1021 hPa
Oblačnost: Jasno
Vidljivost: 10 km
2021/04/16 06:50 LIPQ 160650Z AUTO VRB01KT 9999 NCD 08/M01 Q1021
LIVT - Trieste, Italy
Oddaljenost od postaje: WSW 109km
Podatki zajeti: 16/04/2021 08:55
Jasno
Jasno
 Veter iz smeri NE
Veter: NE 11 km/h
Temperatura: 9°C
Občutek mraza zaradi vetra: 7°C
Rosišče: -5°C
Vlažnost: 37%
Tlak: 1020 hPa
Stanje: Jasno
Vidljivost: večja od 10 km
2021/04/16 06:55 LIVT 160655Z 04006KT CAVOK 09/M05 Q1020 RMK SKC QUK 1 QUL 1 NE VIS MAR 20 KM VIS MIN 9999
 
LIVO - Tarvisio, Italy
Oddaljenost od postaje: NNW 49km
Podatki zajeti: 16/04/2021 08:55
Jasno
Jasno
 Veter iz smeri SE
Veter: SE 4 km/h
Temperatura: 1°C
Rosišče: -4°C
Vlažnost: 70%
Tlak: 1019 hPa
Stanje: Jasno
Vidljivost: večja od 10 km
2021/04/16 06:55 LIVO 160655Z 14002KT CAVOK 01/M04 Q1019 RMK SKC VIS MIN 9999
LIPZ - Venezia/Tessera, Italy
Oddaljenost od postaje: WSW 217km
Podatki zajeti: 16/04/2021 08:50
Jasno
Jasno
 Veter iz smeri NE
Veter: NE 11 km/h
Temperatura: 8°C
Občutek mraza zaradi vetra: 6°C
Rosišče: 3°C
Vlažnost: 71%
Tlak: 1021 hPa
Stanje: Jasno
Vidljivost: večja od 10 km
2021/04/16 06:50 LIPZ 160650Z 05006KT CAVOK 08/03 Q1021 NOSIG
 
LHSM - Balaton, Hungary
Oddaljenost od postaje: ENE 177km
Podatki zajeti: 16/04/2021 08:45
Jasno
Jasno
 Veter iz smeri NNW
Veter: NNW 11 km/h
Temperatura: 5°C
Občutek mraza zaradi vetra: 2°C
Rosišče: 0°C
Vlažnost: 70%
Tlak: 1022 hPa
Stanje: Jasno
Vidljivost: večja od 10 km
2021/04/16 06:45 LHSM 160645Z AUTO 33006KT CAVOK 05/M00 Q1022 NOSIG